createdAt,value
2022-08-26T00:03:26.863Z,15.20
2022-08-26T00:08:29.956Z,15.10
2022-08-26T00:13:33.510Z,15.00
2022-08-26T00:18:38.834Z,14.90
2022-08-26T00:23:43.135Z,14.80
2022-08-26T00:28:45.674Z,14.60
2022-08-26T00:33:47.963Z,14.40
2022-08-26T00:38:51.965Z,14.30
2022-08-26T00:43:54.253Z,14.30
2022-08-26T00:49:12.018Z,14.20
2022-08-26T00:54:16.274Z,14.10
2022-08-26T00:59:20.479Z,14.10
2022-08-26T01:04:23.995Z,14.10
2022-08-26T01:09:28.896Z,14.10
2022-08-26T01:14:35.716Z,14.10
2022-08-26T01:19:45.891Z,14.10
2022-08-26T01:24:49.067Z,14.00
2022-08-26T01:29:51.776Z,13.90
2022-08-26T01:34:55.953Z,13.80
2022-08-26T01:39:59.066Z,13.90
2022-08-26T01:45:13.591Z,13.80
2022-08-26T01:50:28.052Z,13.70
2022-08-26T01:55:34.220Z,13.70
2022-08-26T02:00:38.205Z,13.70
2022-08-26T02:05:40.788Z,13.60
2022-08-26T02:10:45.840Z,13.70
2022-08-26T02:15:49.359Z,13.60
2022-08-26T02:20:54.865Z,13.50
2022-08-26T02:26:05.824Z,13.30
2022-08-26T02:31:08.548Z,13.20
2022-08-26T02:36:13.497Z,13.20
2022-08-26T02:41:18.149Z,13.20
2022-08-26T02:46:21.539Z,13.20
2022-08-26T02:51:30.224Z,13.10
2022-08-26T02:56:35.423Z,13.20
2022-08-26T03:01:38.457Z,13.20
2022-08-26T03:06:41.508Z,13.30
2022-08-26T03:11:43.976Z,13.30
2022-08-26T03:16:48.504Z,13.20
2022-08-26T03:21:53.051Z,13.20
2022-08-26T03:27:01.985Z,13.20
2022-08-26T03:32:09.893Z,13.10
2022-08-26T03:37:12.954Z,13.00
2022-08-26T03:42:15.476Z,13.00
2022-08-26T03:47:18.212Z,12.90
2022-08-26T03:52:20.393Z,12.90
2022-08-26T03:57:22.579Z,12.90
2022-08-26T04:02:25.969Z,12.80
2022-08-26T04:07:28.341Z,12.80
2022-08-26T04:12:34.363Z,12.70
2022-08-26T04:17:37.171Z,12.70
2022-08-26T04:22:40.779Z,12.70
2022-08-26T04:27:42.916Z,12.60
2022-08-26T04:32:45.674Z,12.50
2022-08-26T04:37:49.070Z,12.50
2022-08-26T04:42:51.359Z,12.40
2022-08-26T04:47:56.503Z,12.30
2022-08-26T04:52:59.589Z,12.20
2022-08-26T04:58:01.863Z,12.20
2022-08-26T05:03:04.217Z,12.20
2022-08-26T05:08:08.783Z,12.20
2022-08-26T05:13:14.304Z,12.30
2022-08-26T05:18:21.277Z,12.30
2022-08-26T05:23:25.764Z,12.20
2022-08-26T05:28:29.658Z,12.20
2022-08-26T05:33:31.888Z,12.20
2022-08-26T05:38:34.830Z,12.20
2022-08-26T05:43:38.504Z,12.20
2022-08-26T05:48:44.234Z,12.10
2022-08-26T05:53:54.614Z,12.20
2022-08-26T05:58:59.630Z,12.20
2022-08-26T06:04:02.846Z,12.20
2022-08-26T06:09:07.195Z,12.20
2022-08-26T06:14:13.433Z,12.30
2022-08-26T06:19:15.861Z,12.40
2022-08-26T06:24:36.798Z,12.40
2022-08-26T06:29:39.327Z,12.40
2022-08-26T06:34:41.559Z,12.50
2022-08-26T06:39:43.808Z,12.60
2022-08-26T06:44:46.047Z,12.70
2022-08-26T06:49:48.347Z,12.80
2022-08-26T06:54:53.337Z,12.90
2022-08-26T06:59:56.481Z,12.90
2022-08-26T07:04:58.759Z,13.10
2022-08-26T07:10:01.032Z,13.20
2022-08-26T07:15:04.240Z,13.30
2022-08-26T07:20:08.566Z,13.50
2022-08-26T07:25:11.514Z,13.70
2022-08-26T07:30:14.181Z,13.90
2022-08-26T07:35:17.354Z,14.10
2022-08-26T07:40:20.878Z,14.20
2022-08-26T07:45:23.128Z,14.40
2022-08-26T07:50:49.475Z,14.50
2022-08-26T07:55:48.404Z,14.70
2022-08-26T08:00:50.687Z,14.90
2022-08-26T08:05:55.929Z,15.10
2022-08-26T08:10:58.730Z,15.30
2022-08-26T08:16:01.919Z,15.50
2022-08-26T08:21:20.895Z,15.70
2022-08-26T08:26:26.318Z,15.90
2022-08-26T08:36:54.282Z,16.50
2022-08-26T08:42:10.580Z,16.90
2022-08-26T08:47:32.317Z,17.10
2022-08-26T08:52:36.377Z,17.20
2022-08-26T08:58:10.087Z,17.30
2022-08-26T09:03:46.346Z,17.50
2022-08-26T09:08:51.535Z,17.60
2022-08-26T09:13:54.930Z,17.90
2022-08-26T09:19:05.050Z,18.00
2022-08-26T09:24:07.586Z,18.10
2022-08-26T09:29:29.125Z,18.20
2022-08-26T09:34:31.221Z,18.20
2022-08-26T09:39:38.844Z,18.20
2022-08-26T09:44:54.783Z,18.20
2022-08-26T09:50:04.650Z,18.20
2022-08-26T09:55:22.412Z,18.20
2022-08-26T10:00:38.436Z,18.20
2022-08-26T10:05:40.756Z,18.20
2022-08-26T10:10:45.585Z,18.40
2022-08-26T10:16:03.681Z,18.60
2022-08-26T10:21:18.262Z,18.60
2022-08-26T10:26:53.394Z,18.70
2022-08-26T10:32:03.511Z,18.90
2022-08-26T10:37:15.527Z,18.90
2022-08-26T10:42:24.719Z,19.20
2022-08-26T10:48:07.081Z,19.40
2022-08-26T10:53:25.256Z,19.50
2022-08-26T10:58:46.911Z,19.70
2022-08-26T11:04:09.878Z,19.80
2022-08-26T11:09:32.653Z,19.90
2022-08-26T11:14:44.667Z,20.10
2022-08-26T11:20:01.685Z,20.30
2022-08-26T11:25:14.287Z,20.40
2022-08-26T11:30:18.494Z,20.40
2022-08-26T11:35:21.785Z,20.80
2022-08-26T11:40:27.116Z,21.00
2022-08-26T11:45:34.982Z,21.10
2022-08-26T11:50:39.564Z,21.20
2022-08-26T11:55:45.050Z,21.60
2022-08-26T12:00:49.405Z,21.70
2022-08-26T12:05:53.281Z,21.80
2022-08-26T12:11:04.461Z,21.90
2022-08-26T12:16:07.558Z,21.90
2022-08-26T12:21:19.084Z,21.80
2022-08-26T12:26:31.936Z,22.10
2022-08-26T12:31:41.919Z,22.50
2022-08-26T12:36:48.666Z,22.50
2022-08-26T12:41:52.925Z,22.40
2022-08-26T12:47:06.219Z,22.30
2022-08-26T12:52:30.022Z,22.20
2022-08-26T12:57:36.104Z,22.50
2022-08-26T13:02:39.754Z,22.60
2022-08-26T13:07:41.958Z,23.00
2022-08-26T13:12:44.146Z,23.30
2022-08-26T13:17:46.419Z,23.10
2022-08-26T13:22:53.897Z,23.50
2022-08-26T13:28:01.512Z,24.00
2022-08-26T13:33:03.978Z,24.20
2022-08-26T13:38:08.991Z,23.90
2022-08-26T13:43:11.772Z,23.90
2022-08-26T13:48:14.113Z,22.80
2022-08-26T13:53:17.175Z,22.30
2022-08-26T13:58:19.525Z,22.10
2022-08-26T14:03:22.134Z,21.90
2022-08-26T14:08:24.806Z,22.10
2022-08-26T14:13:27.359Z,22.90
2022-08-26T14:18:33.369Z,23.60
2022-08-26T14:23:35.664Z,23.60
2022-08-26T14:28:38.289Z,23.60
2022-08-26T14:33:41.495Z,23.90
2022-08-26T14:38:44.228Z,23.90
2022-08-26T14:43:54.577Z,23.90
2022-08-26T14:49:01.717Z,23.90
2022-08-26T14:54:13.596Z,23.00
2022-08-26T14:59:20.895Z,22.70
2022-08-26T15:04:24.278Z,23.00
2022-08-26T15:09:28.324Z,23.30
2022-08-26T15:14:32.940Z,23.20
2022-08-26T15:19:35.486Z,22.80
2022-08-26T15:24:37.903Z,22.70
2022-08-26T15:29:40.553Z,22.30
2022-08-26T15:34:42.878Z,21.80
2022-08-26T15:39:45.165Z,21.30
2022-08-26T15:44:47.850Z,22.50
2022-08-26T15:49:50.093Z,23.20
2022-08-26T15:54:53.024Z,23.70
2022-08-26T15:59:55.701Z,24.00
2022-08-26T16:04:57.909Z,23.00
2022-08-26T16:10:02.592Z,22.30
2022-08-26T16:15:05.754Z,21.50
2022-08-26T16:20:08.913Z,21.00
2022-08-26T16:25:11.365Z,20.60
2022-08-26T16:30:14.085Z,20.30
2022-08-26T16:35:17.022Z,20.00
2022-08-26T16:40:19.903Z,20.00
2022-08-26T16:45:23.541Z,20.10
2022-08-26T16:50:26.001Z,19.90
2022-08-26T16:55:28.254Z,20.10
2022-08-26T17:00:32.792Z,20.00
2022-08-26T17:05:36.357Z,20.40
2022-08-26T17:10:38.631Z,20.30
2022-08-26T17:15:41.111Z,20.10
2022-08-26T17:20:44.973Z,19.80
2022-08-26T17:25:47.340Z,19.70
2022-08-26T17:30:49.572Z,19.70
2022-08-26T17:35:53.047Z,19.70
2022-08-26T17:40:56.105Z,19.60
2022-08-26T17:46:07.002Z,19.50
2022-08-26T17:51:16.764Z,19.40
2022-08-26T17:56:24.181Z,19.30
2022-08-26T18:01:27.956Z,19.30
2022-08-26T18:06:30.868Z,19.30
2022-08-26T18:11:33.576Z,19.30
2022-08-26T18:16:38.509Z,19.20
2022-08-26T18:21:40.692Z,19.30
2022-08-26T18:26:48.892Z,19.60
2022-08-26T18:31:51.840Z,19.50
2022-08-26T18:36:54.064Z,19.30
2022-08-26T18:41:56.358Z,19.00
2022-08-26T18:46:58.691Z,18.90
2022-08-26T18:52:01.165Z,18.80
2022-08-26T18:57:04.350Z,18.80
2022-08-26T19:02:09.776Z,18.70
2022-08-26T19:07:12.162Z,18.50
2022-08-26T19:12:14.939Z,18.30
2022-08-26T19:17:18.386Z,18.20
2022-08-26T19:22:24.831Z,18.00
2022-08-26T19:27:27.808Z,18.00
2022-08-26T19:32:30.005Z,18.00
2022-08-26T19:37:32.649Z,17.90
2022-08-26T19:42:34.849Z,17.80
2022-08-26T19:47:39.161Z,17.80
2022-08-26T19:52:42.935Z,17.80
2022-08-26T19:57:45.323Z,17.70
2022-08-26T20:02:48.902Z,17.70
2022-08-26T20:07:51.175Z,17.60
2022-08-26T20:12:53.480Z,17.60
2022-08-26T20:17:55.856Z,17.50
2022-08-26T20:22:58.302Z,17.40
2022-08-26T20:28:00.881Z,17.40
2022-08-26T20:33:03.161Z,17.30
2022-08-26T20:38:05.803Z,17.30
2022-08-26T20:43:08.494Z,17.20
2022-08-26T20:48:11.018Z,17.30
2022-08-26T20:53:13.685Z,17.20
2022-08-26T20:58:15.904Z,17.10
2022-08-26T21:03:18.193Z,17.10
2022-08-26T21:08:20.649Z,17.20
2022-08-26T21:13:22.947Z,17.00
2022-08-26T21:18:25.829Z,16.90
2022-08-26T21:23:29.383Z,16.80
2022-08-26T21:28:31.856Z,16.80
2022-08-26T21:33:34.486Z,16.80
2022-08-26T21:38:37.423Z,16.80
2022-08-26T21:43:40.519Z,16.90
2022-08-26T21:48:50.924Z,16.90
2022-08-26T21:53:54.429Z,16.90
2022-08-26T21:58:57.579Z,16.90
2022-08-26T22:04:00.154Z,16.90
2022-08-26T22:09:02.409Z,16.90
2022-08-26T22:14:04.918Z,16.90
2022-08-26T22:19:07.707Z,16.80
2022-08-26T22:24:17.897Z,16.80
2022-08-26T22:29:20.318Z,16.80
2022-08-26T22:34:23.365Z,16.80
2022-08-26T22:39:26.822Z,16.90
2022-08-26T22:44:29.191Z,16.80
2022-08-26T22:49:31.877Z,16.80
2022-08-26T22:54:34.090Z,16.70
2022-08-26T22:59:36.346Z,16.60
2022-08-26T23:07:59.446Z,16.50
2022-08-26T23:13:04.246Z,16.50
2022-08-26T23:18:06.806Z,16.40
2022-08-26T23:23:09.595Z,16.40
2022-08-26T23:28:12.826Z,16.20
2022-08-26T23:33:15.694Z,16.00
2022-08-26T23:38:17.860Z,15.80
2022-08-26T23:43:20.029Z,15.60
2022-08-26T23:48:22.204Z,15.60
2022-08-26T23:53:24.379Z,15.50
2022-08-26T23:58:26.737Z,15.50
